Dublin, Ireland

11:07 AM GMT on January 27, 2015 (GMT +0000)
Herberton | Change Station
CLOSE
Current Station
Personal Weather Station
Location: Dublin, DUBLIN
Elevation: 75 ft
Nearby Weather Stations

Elev 75 ft 53.34 °N, 6.29 °W | Updated 11 minutes ago

Light Drizzle
Light Drizzle
45.2 °F
Feels Like 45 °F
N
2.0
Wind Variable Wind from WSW
Gusts 7.0 mph

Today
High -- | Low -- °F
--% Chance of Precip.
Yesterday
High -- | Low -- °F
Precip. -- in
8:18 AM 4:58 PM
First Quarter, 53% visible
Pressure 30.33 in
Visibility 2.5 miles
Clouds Few 700 ft
Mostly Cloudy 800 ft
Mostly Cloudy 1600 ft
Windchill 45 °F
Dew Point 42 °F
Humidity 87%
Rainfall 0.00 in
Snow Depth Not available.
UV 1 out of 12
Pollen Not available.
Air Quality Not available.
Flu Activity Not available.
METAR EIME 271100Z 23010KT 4000 -DZ FEW007 BKN008 BKN016 06/05 Q1027

More Conditions Fewer Conditions

Pressure 30.33 in
Visibility 2.5 miles
Clouds Few 700 ft
Mostly Cloudy 800 ft
Mostly Cloudy 1600 ft
Windchill 45 °F
Dew Point 42 °F
Humidity 87%
Rainfall 0.00 in
Snow Depth Not available.
UV 1 out of 12
Pollen Not available.
Air Quality Not available.
Flu Activity Not available.
METAR EIME 271100Z 23010KT 4000 -DZ FEW007 BKN008 BKN016 06/05 Q1027

More Conditions Fewer Conditions

10-Day Weather Forecast

Almanac

Astronomy

Jan. 27, 2015 Rise Set
Actual Time
Civil Twilight
Nautical Twilight
Astronomical Twilight
Moon
Length of Visible Light
Length of Day
Tomorrow will be .
, % of the Moon is Illuminated

Today's Extremes

Country Highs Country Lows

Community

WunderPhotos

Upload Photos

1,790,564 photos uploaded!

WunderBlogs® & News

Nearby

Air Quality

  Air Quality AQ Index Pollutant
Not available.

Snow Depth

Station Depth Elevation

Earthquake Activity

City Distance Mag. Time & Date
Minimum magnitude displayed is 2.5.

Coastal Water Temperatures

Place Temperature

Nearby Weather Stations